Time;durP1;ratioP1;P1;durP2;ratioP2;P2;SDS_P1;SDS_P2;PMS_P1;PMS_P2;Temp;Humidity;BMP_temperature;BMP_pressure;BME280_temperature;BME280_humidity;BME280_pressure;Samples;Min_cycle;Max_cycle;Signal;HPM_P1;HPM_P2
2022/01/24 00:00:38;;;;;;;;;;;18.50;32.50;;;;;;483599;246;1408;-74
2022/01/24 00:02:41;;;;;;;;;;;18.50;32.40;;;;;;483712;246;1186;-74
2022/01/24 00:04:41;;;;;;;;;;;18.60;32.20;;;;;;483645;247;1406;-73
2022/01/24 00:06:42;;;;;;;;;;;18.70;32.10;;;;;;483606;247;1300;-74
2022/01/24 00:08:44;;;;;;;;;;;18.90;31.80;;;;;;483757;246;957;-74
2022/01/24 00:10:47;;;;;;;;;;;19.00;31.60;;;;;;483726;246;2125;-74
2022/01/24 00:12:58;;;;;;;;;;;19.00;31.50;;;;;;483615;246;1424;-74
2022/01/24 00:15:01;;;;;;;;;;;19.10;31.40;;;;;;482943;246;1419;-74
2022/01/24 00:17:04;;;;;;;;;;;19.20;31.30;;;;;;483160;246;1351;-74
2022/01/24 00:28:20;;;;;;;;;;;19.40;30.80;;;;;;483714;246;1330;-74
2022/01/24 00:30:21;;;;;;;;;;;19.30;30.80;;;;;;483660;247;1512;-74
2022/01/24 00:32:22;;;;;;;;;;;19.40;30.70;;;;;;483754;246;2196;-74
2022/01/24 00:34:24;;;;;;;;;;;19.50;30.60;;;;;;483707;247;1070;-74
2022/01/24 00:36:25;;;;;;;;;;;19.60;30.60;;;;;;483664;246;1186;-73
2022/01/24 00:38:26;;;;;;;;;;;19.60;30.50;;;;;;483659;247;977;-74
2022/01/24 00:40:28;;;;;;;;;;;19.60;30.40;;;;;;483661;246;1181;-74
2022/01/24 00:42:36;;;;;;;;;;;19.60;30.40;;;;;;483694;246;1256;-73
2022/01/24 00:44:47;;;;;;;;;;;19.60;30.30;;;;;;483411;246;1459;-73
2022/01/24 00:46:50;;;;;;;;;;;19.70;30.30;;;;;;483353;246;1671;-74
2022/01/24 00:49:12;;;;;;;;;;;20.00;30.00;;;;;;483281;246;1426;-74
2022/01/24 00:53:29;;;;;;;;;;;20.50;29.50;;;;;;483669;247;1144;-74
2022/01/24 00:55:18;;;;;;;;;;;20.40;29.30;;;;;;482849;246;1453;-74
2022/01/24 00:57:20;;;;;;;;;;;20.30;29.50;;;;;;483647;246;1247;-74
2022/01/24 00:59:21;;;;;;;;;;;20.30;29.50;;;;;;483745;246;1180;-74
2022/01/24 01:01:22;;;;;;;;;;;20.70;29.30;;;;;;483686;246;1252;-74
2022/01/24 01:03:24;;;;;;;;;;;20.50;29.20;;;;;;483652;247;1137;-74
2022/01/24 01:05:37;;;;;;;;;;;20.90;29.00;;;;;;483707;246;1014;-74
2022/01/24 01:07:37;;;;;;;;;;;20.60;29.00;;;;;;482931;246;1436;-74
2022/01/24 01:18:52;;;;;;;;;;;20.70;28.80;;;;;;483727;247;1195;-74
2022/01/24 01:21:10;;;;;;;;;;;20.50;29.10;;;;;;483796;246;1206;-74
2022/01/24 01:23:10;;;;;;;;;;;20.30;29.20;;;;;;483627;247;1453;-74
2022/01/24 01:25:11;;;;;;;;;;;20.10;29.40;;;;;;483738;246;1059;-74
2022/01/24 01:27:17;;;;;;;;;;;20.10;29.40;;;;;;483659;246;1229;-74
2022/01/24 01:29:19;;;;;;;;;;;19.90;29.50;;;;;;483446;246;1521;-74
2022/01/24 01:31:25;;;;;;;;;;;19.80;29.60;;;;;;483340;246;2184;-74
2022/01/24 01:33:26;;;;;;;;;;;19.80;29.70;;;;;;483278;246;1434;-74
2022/01/24 01:35:36;;;;;;;;;;;19.50;29.80;;;;;;483159;246;1439;-74
2022/01/24 01:52:14;;;;;;;;;;;19.40;29.80;;;;;;461776;257;1051;-74
2022/01/24 01:54:36;;;;;;;;;;;19.40;29.80;;;;;;461683;258;1087;-74
2022/01/24 01:56:30;;;;;;;;;;;19.30;29.90;;;;;;461083;258;1432;-74
2022/01/24 01:58:31;;;;;;;;;;;19.30;29.90;;;;;;461788;258;1152;-74
2022/01/24 02:00:33;;;;;;;;;;;19.30;29.80;;;;;;461822;258;1175;-74
2022/01/24 02:02:34;;;;;;;;;;;19.20;29.80;;;;;;461773;257;1346;-74
2022/01/24 02:04:35;;;;;;;;;;;19.10;29.80;;;;;;461664;257;1315;-74
2022/01/24 02:06:38;;;;;;;;;;;19.20;29.90;;;;;;461609;258;1106;-74
2022/01/24 02:08:40;;;;;;;;;;;19.10;29.90;;;;;;461640;258;1523;-74
2022/01/24 02:10:41;;;;;;;;;;;19.30;29.80;;;;;;463646;246;1380;-74
2022/01/24 02:12:40;;;;;;;;;;;19.20;29.80;;;;;;483578;247;2125;-74
2022/01/24 02:14:47;;;;;;;;;;;19.20;29.70;;;;;;483832;246;1269;-74
2022/01/24 02:16:48;;;;;;;;;;;19.10;29.70;;;;;;483386;246;1492;-74
2022/01/24 02:18:52;;;;;;;;;;;19.00;29.80;;;;;;483386;246;1425;-74
2022/01/24 02:21:07;;;;;;;;;;;18.90;29.90;;;;;;483385;246;1416;-74
2022/01/24 02:23:19;;;;;;;;;;;19.00;29.90;;;;;;482779;246;1340;-74
2022/01/24 02:25:27;;;;;;;;;;;19.00;29.90;;;;;;483524;246;1443;-74
2022/01/24 02:27:33;;;;;;;;;;;19.00;29.80;;;;;;483578;246;1306;-74
2022/01/24 02:29:44;;;;;;;;;;;19.00;29.70;;;;;;483310;246;1406;-73
2022/01/24 02:31:39;;;;;;;;;;;19.00;29.70;;;;;;482650;246;2192;-74
2022/01/24 02:33:43;;;;;;;;;;;19.00;29.70;;;;;;483609;247;1576;-74
2022/01/24 02:35:40;;;;;;;;;;;19.00;29.80;;;;;;483471;246;1401;-74
2022/01/24 02:37:42;;;;;;;;;;;19.10;29.70;;;;;;483686;247;1185;-73
2022/01/24 02:39:50;;;;;;;;;;;19.00;29.70;;;;;;483701;247;963;-74
2022/01/24 02:48:45;;;;;;;;;;;19.00;29.60;;;;;;483776;246;960;-74
2022/01/24 02:53:10;;;;;;;;;;;19.00;29.50;;;;;;483577;246;2169;-74
2022/01/24 02:55:12;;;;;;;;;;;19.00;29.60;;;;;;483698;247;1248;-74
2022/01/24 02:57:13;;;;;;;;;;;19.00;29.60;;;;;;483752;246;1226;-74
2022/01/24 02:59:14;;;;;;;;;;;19.00;29.60;;;;;;483700;247;1121;-74
2022/01/24 03:01:16;;;;;;;;;;;19.00;29.50;;;;;;483688;247;1106;-74
2022/01/24 03:03:17;;;;;;;;;;;19.00;29.40;;;;;;483672;246;1049;-74
2022/01/24 03:05:19;;;;;;;;;;;19.00;29.50;;;;;;483670;247;1265;-74
2022/01/24 03:07:20;;;;;;;;;;;19.00;29.40;;;;;;483569;246;1072;-74
2022/01/24 03:09:22;;;;;;;;;;;19.00;29.40;;;;;;483681;247;965;-74
2022/01/24 03:11:27;;;;;;;;;;;19.00;29.30;;;;;;483689;247;2200;-74
2022/01/24 03:13:33;;;;;;;;;;;18.90;29.40;;;;;;483541;246;1310;-74
2022/01/24 03:15:35;;;;;;;;;;;19.10;29.30;;;;;;483724;246;1188;-74
2022/01/24 03:17:36;;;;;;;;;;;19.00;29.30;;;;;;483713;247;1163;-74
2022/01/24 03:19:37;;;;;;;;;;;19.00;29.30;;;;;;483759;246;1031;-74
2022/01/24 03:21:39;;;;;;;;;;;19.00;29.40;;;;;;483635;246;1106;-74
2022/01/24 03:23:40;;;;;;;;;;;18.90;29.40;;;;;;483694;247;1077;-74
2022/01/24 03:25:41;;;;;;;;;;;18.80;29.40;;;;;;483674;246;1227;-74
2022/01/24 03:27:43;;;;;;;;;;;18.80;29.40;;;;;;483652;246;1188;-74
2022/01/24 03:29:44;;;;;;;;;;;18.90;29.40;;;;;;483685;247;1184;-74
2022/01/24 03:31:45;;;;;;;;;;;18.90;29.30;;;;;;483582;246;2192;-74
2022/01/24 03:33:47;;;;;;;;;;;18.90;29.30;;;;;;483679;247;1170;-74
2022/01/24 03:35:48;;;;;;;;;;;18.90;29.20;;;;;;483659;246;1242;-74
2022/01/24 03:37:49;;;;;;;;;;;18.90;29.20;;;;;;483620;247;1261;-74
2022/01/24 03:39:51;;;;;;;;;;;18.90;29.20;;;;;;483767;247;1210;-74
2022/01/24 03:41:52;;;;;;;;;;;19.00;29.20;;;;;;483685;246;1201;-74
2022/01/24 03:44:00;;;;;;;;;;;19.00;29.10;;;;;;483706;247;968;-74
2022/01/24 03:46:12;;;;;;;;;;;19.10;29.00;;;;;;483206;246;1596;-74
2022/01/24 03:48:12;;;;;;;;;;;19.00;29.10;;;;;;483636;246;1584;-74
2022/01/24 03:50:16;;;;;;;;;;;19.00;29.10;;;;;;483650;246;1341;-74
2022/01/24 03:52:13;;;;;;;;;;;18.90;29.10;;;;;;483399;246;2200;-74
2022/01/24 03:54:15;;;;;;;;;;;18.90;29.10;;;;;;483654;246;1086;-74
2022/01/24 03:56:16;;;;;;;;;;;18.90;29.10;;;;;;483635;246;1342;-74
2022/01/24 03:58:17;;;;;;;;;;;18.90;29.10;;;;;;483651;247;1123;-74
2022/01/24 04:00:18;;;;;;;;;;;18.80;29.10;;;;;;483600;247;1164;-74
2022/01/24 04:02:20;;;;;;;;;;;18.80;29.10;;;;;;483639;247;1181;-74
2022/01/24 04:04:21;;;;;;;;;;;18.80;29.20;;;;;;483690;247;1118;-74
2022/01/24 04:06:22;;;;;;;;;;;18.80;29.10;;;;;;483533;247;1185;-74
2022/01/24 04:08:24;;;;;;;;;;;18.80;29.10;;;;;;483660;247;1054;-74
2022/01/24 04:10:25;;;;;;;;;;;18.70;29.10;;;;;;483680;247;950;-74
2022/01/24 04:12:27;;;;;;;;;;;18.80;29.10;;;;;;483631;246;2117;-73
2022/01/24 04:14:36;;;;;;;;;;;18.80;29.00;;;;;;483723;247;1157;-74
2022/01/24 04:16:32;;;;;;;;;;;18.80;29.00;;;;;;483118;246;1537;-74
2022/01/24 04:18:38;;;;;;;;;;;18.90;29.00;;;;;;483700;246;1412;-74
2022/01/24 04:22:56;;;;;;;;;;;18.80;29.00;;;;;;483705;246;1123;-74
2022/01/24 04:24:59;;;;;;;;;;;18.90;29.00;;;;;;483659;246;1416;-74
2022/01/24 04:26:56;;;;;;;;;;;18.90;29.00;;;;;;483351;246;1426;-74
2022/01/24 04:28:57;;;;;;;;;;;19.10;28.80;;;;;;483658;246;983;-74
2022/01/24 04:30:59;;;;;;;;;;;19.00;28.80;;;;;;483583;247;1209;-74
2022/01/24 04:33:00;;;;;;;;;;;19.10;28.80;;;;;;483625;247;2188;-74
2022/01/24 04:35:01;;;;;;;;;;;19.00;28.80;;;;;;483704;247;1044;-74
2022/01/24 04:37:02;;;;;;;;;;;18.90;28.90;;;;;;483592;246;1178;-73
2022/01/24 04:39:04;;;;;;;;;;;18.80;28.90;;;;;;483632;247;1059;-74
2022/01/24 04:41:14;;;;;;;;;;;19.00;28.80;;;;;;483666;246;1310;-74
2022/01/24 04:43:27;;;;;;;;;;;18.90;28.80;;;;;;483006;246;1408;-74
2022/01/24 04:47:38;;;;;;;;;;;18.80;29.00;;;;;;480123;246;1146;-74
2022/01/24 04:52:08;;;;;;;;;;;18.80;29.00;;;;;;483599;246;1383;-73
2022/01/24 04:54:37;;;;;;;;;;;18.80;29.00;;;;;;482647;246;1402;-74
2022/01/24 04:56:18;;;;;;;;;;;18.80;28.90;;;;;;482209;246;1277;-74
2022/01/24 04:58:19;;;;;;;;;;;18.80;28.90;;;;;;483704;247;1075;-74
2022/01/24 05:00:20;;;;;;;;;;;18.80;28.90;;;;;;483712;242;1289;-74
2022/01/24 05:02:22;;;;;;;;;;;18.90;28.80;;;;;;483658;247;1111;-74
2022/01/24 05:04:23;;;;;;;;;;;18.90;28.80;;;;;;483648;246;965;-74
2022/01/24 05:06:24;;;;;;;;;;;18.90;28.80;;;;;;483638;246;1046;-74
2022/01/24 05:08:26;;;;;;;;;;;18.90;28.80;;;;;;483622;247;1068;-74
2022/01/24 05:10:34;;;;;;;;;;;18.90;28.70;;;;;;483624;247;993;-74
2022/01/24 05:21:11;;;;;;;;;;;18.90;28.80;;;;;;483222;246;2137;-74
2022/01/24 05:23:24;;;;;;;;;;;18.80;28.70;;;;;;483578;246;1234;-76
2022/01/24 05:23:41;;;;;;;;;;;18.80;28.80;;;;;;481980;246;1140;-76
2022/01/24 05:25:39;;;;;;;;;;;18.80;28.70;;;;;;483367;246;1391;-76
2022/01/24 05:27:40;;;;;;;;;;;18.90;28.70;;;;;;483538;246;1151;-76
2022/01/24 05:29:42;;;;;;;;;;;18.80;28.70;;;;;;483746;246;1127;-76
2022/01/24 05:31:43;;;;;;;;;;;18.80;28.60;;;;;;483607;247;1599;-76
2022/01/24 05:33:44;;;;;;;;;;;18.90;28.50;;;;;;483561;246;2199;-76
2022/01/24 05:35:46;;;;;;;;;;;18.90;28.60;;;;;;483484;247;1247;-76
2022/01/24 05:37:47;;;;;;;;;;;18.80;28.60;;;;;;483614;246;1501;-76
2022/01/24 05:39:48;;;;;;;;;;;18.80;28.60;;;;;;483599;246;1086;-76
2022/01/24 05:41:49;;;;;;;;;;;18.80;28.60;;;;;;483538;247;1404;-76
2022/01/24 05:43:51;;;;;;;;;;;18.80;28.50;;;;;;483569;246;998;-76
2022/01/24 05:45:52;;;;;;;;;;;18.90;28.60;;;;;;483440;247;1431;-76
2022/01/24 05:47:53;;;;;;;;;;;18.80;28.60;;;;;;483481;247;1120;-76
2022/01/24 05:49:55;;;;;;;;;;;18.90;28.60;;;;;;483521;247;986;-76
2022/01/24 05:51:56;;;;;;;;;;;18.80;28.50;;;;;;483440;247;1310;-76
2022/01/24 05:53:57;;;;;;;;;;;18.90;28.50;;;;;;483458;247;2249;-76
2022/01/24 05:55:59;;;;;;;;;;;18.80;28.50;;;;;;483508;246;1108;-76
2022/01/24 05:58:00;;;;;;;;;;;18.80;28.60;;;;;;483420;247;1094;-76
2022/01/24 06:00:02;;;;;;;;;;;18.80;28.60;;;;;;483403;246;1012;-76
2022/01/24 06:02:03;;;;;;;;;;;18.80;28.60;;;;;;483336;247;1133;-76
2022/01/24 06:04:04;;;;;;;;;;;18.80;28.60;;;;;;483455;246;1069;-76
2022/01/24 06:06:07;;;;;;;;;;;18.80;28.50;;;;;;483381;246;1321;-76
2022/01/24 06:08:07;;;;;;;;;;;18.80;28.50;;;;;;483385;246;1425;-76
2022/01/24 06:10:08;;;;;;;;;;;19.00;28.40;;;;;;483383;247;1543;-76
2022/01/24 06:12:10;;;;;;;;;;;19.00;28.40;;;;;;483347;246;1225;-76
2022/01/24 06:14:11;;;;;;;;;;;19.30;28.30;;;;;;483386;247;2191;-76
2022/01/24 06:16:13;;;;;;;;;;;19.30;28.10;;;;;;483369;246;1185;-76
2022/01/24 06:18:14;;;;;;;;;;;19.40;28.00;;;;;;483362;246;1014;-76
2022/01/24 06:20:15;;;;;;;;;;;19.30;28.10;;;;;;483304;246;1189;-76
2022/01/24 06:22:17;;;;;;;;;;;19.20;28.10;;;;;;483385;247;1186;-76
2022/01/24 06:24:18;;;;;;;;;;;19.40;28.00;;;;;;483445;246;1062;-76
2022/01/24 06:26:19;;;;;;;;;;;19.40;28.10;;;;;;483434;246;1115;-76
2022/01/24 06:28:20;;;;;;;;;;;19.50;28.00;;;;;;483285;247;1113;-76
2022/01/24 06:30:22;;;;;;;;;;;19.50;27.90;;;;;;483280;246;983;-76
2022/01/24 06:32:23;;;;;;;;;;;19.60;27.90;;;;;;483255;247;1230;-76
2022/01/24 06:34:24;;;;;;;;;;;19.80;27.80;;;;;;483407;247;2212;-76
2022/01/24 06:36:26;;;;;;;;;;;19.80;27.70;;;;;;483385;247;1139;-76
2022/01/24 06:38:27;;;;;;;;;;;20.00;27.50;;;;;;483296;246;978;-76
2022/01/24 06:40:28;;;;;;;;;;;19.90;27.60;;;;;;483231;247;1049;-76
2022/01/24 06:42:30;;;;;;;;;;;20.00;27.40;;;;;;483271;246;1075;-76
2022/01/24 06:44:31;;;;;;;;;;;20.30;27.30;;;;;;483409;247;1308;-76
2022/01/24 06:46:32;;;;;;;;;;;20.10;27.40;;;;;;483392;247;1251;-76
2022/01/24 06:48:34;;;;;;;;;;;20.00;27.50;;;;;;483353;246;1026;-76
2022/01/24 06:50:35;;;;;;;;;;;20.00;27.50;;;;;;483208;247;1180;-76
2022/01/24 06:52:36;;;;;;;;;;;19.90;27.50;;;;;;483241;247;2188;-76
2022/01/24 06:54:41;;;;;;;;;;;19.80;27.60;;;;;;483353;246;1127;-76
2022/01/24 06:56:39;;;;;;;;;;;19.90;27.60;;;;;;483210;246;1364;-76
2022/01/24 06:58:40;;;;;;;;;;;19.90;27.60;;;;;;483298;246;1077;-76
2022/01/24 07:00:41;;;;;;;;;;;19.80;27.60;;;;;;483217;246;1136;-76
2022/01/24 07:02:43;;;;;;;;;;;19.90;27.60;;;;;;483166;247;1174;-76
2022/01/24 07:04:44;;;;;;;;;;;20.00;27.50;;;;;;483287;246;1020;-76
2022/01/24 07:06:46;;;;;;;;;;;20.10;27.30;;;;;;483187;246;1130;-76
2022/01/24 07:08:47;;;;;;;;;;;20.10;27.40;;;;;;483130;246;1115;-76
2022/01/24 07:10:48;;;;;;;;;;;19.80;27.50;;;;;;483128;246;1356;-76
2022/01/24 07:12:50;;;;;;;;;;;19.80;27.60;;;;;;483106;246;2188;-76
2022/01/24 07:14:52;;;;;;;;;;;19.90;27.60;;;;;;483112;246;1396;-76
2022/01/24 07:17:10;;;;;;;;;;;19.90;27.50;;;;;;483141;247;1976;-76
2022/01/24 07:19:05;;;;;;;;;;;19.70;27.60;;;;;;482817;246;1958;-76
2022/01/24 07:21:06;;;;;;;;;;;19.70;27.70;;;;;;483121;247;1132;-76
2022/01/24 07:23:07;;;;;;;;;;;19.60;27.70;;;;;;483187;246;1131;-76
2022/01/24 07:25:09;;;;;;;;;;;19.70;27.70;;;;;;482781;247;1261;-76
2022/01/24 07:27:10;;;;;;;;;;;19.90;27.60;;;;;;482830;247;1130;-76
2022/01/24 07:29:11;;;;;;;;;;;19.70;27.60;;;;;;483003;246;1031;-76
2022/01/24 07:31:13;;;;;;;;;;;19.90;27.60;;;;;;482945;246;1118;-76
2022/01/24 07:33:14;;;;;;;;;;;19.80;27.50;;;;;;483024;246;2200;-76
2022/01/24 07:35:16;;;;;;;;;;;19.90;27.50;;;;;;482993;247;1186;-76
2022/01/24 07:37:17;;;;;;;;;;;20.00;27.30;;;;;;483058;246;1305;-76
2022/01/24 07:39:18;;;;;;;;;;;19.90;27.40;;;;;;482880;246;1282;-76
2022/01/24 07:41:24;;;;;;;;;;;19.90;27.40;;;;;;482858;247;1226;-76
2022/01/24 07:43:22;;;;;;;;;;;20.00;27.40;;;;;;482679;246;1383;-76
2022/01/24 07:45:23;;;;;;;;;;;19.80;27.40;;;;;;482894;247;1302;-76
2022/01/24 07:47:24;;;;;;;;;;;19.70;27.50;;;;;;483089;246;1110;-76
2022/01/24 07:49:26;;;;;;;;;;;19.60;27.60;;;;;;483270;246;1047;-76
2022/01/24 07:51:27;;;;;;;;;;;19.50;27.70;;;;;;482896;246;1419;-76
2022/01/24 07:53:28;;;;;;;;;;;19.40;27.80;;;;;;483172;247;2204;-76
2022/01/24 07:55:30;;;;;;;;;;;19.30;27.90;;;;;;482858;246;1213;-76
2022/01/24 07:57:31;;;;;;;;;;;19.30;28.00;;;;;;483060;246;1031;-76
2022/01/24 07:59:32;;;;;;;;;;;19.20;28.00;;;;;;483033;247;1543;-76
2022/01/24 08:01:34;;;;;;;;;;;19.20;28.00;;;;;;483188;246;1141;-76
2022/01/24 08:03:35;;;;;;;;;;;19.10;28.10;;;;;;483181;247;1118;-76
2022/01/24 08:05:36;;;;;;;;;;;19.00;28.20;;;;;;483758;246;1170;-76
2022/01/24 08:07:38;;;;;;;;;;;18.90;28.30;;;;;;483576;246;1103;-76
2022/01/24 08:09:39;;;;;;;;;;;18.80;28.40;;;;;;483149;247;827;-76
2022/01/24 08:11:40;;;;;;;;;;;18.80;28.40;;;;;;483192;247;1060;-76
2022/01/24 08:13:42;;;;;;;;;;;18.80;28.40;;;;;;482782;247;2207;-76
2022/01/24 08:15:43;;;;;;;;;;;18.80;28.50;;;;;;482698;247;1033;-76
2022/01/24 08:17:44;;;;;;;;;;;18.80;28.60;;;;;;482719;246;1495;-76
2022/01/24 08:19:45;;;;;;;;;;;18.70;28.60;;;;;;482866;247;1429;-76
2022/01/24 08:21:47;;;;;;;;;;;18.80;28.70;;;;;;482807;247;1180;-76
2022/01/24 08:23:48;;;;;;;;;;;18.70;28.70;;;;;;482776;247;973;-76
2022/01/24 08:25:49;;;;;;;;;;;18.70;28.70;;;;;;482763;246;1254;-76
2022/01/24 08:27:51;;;;;;;;;;;18.80;28.70;;;;;;482810;246;1440;-76
2022/01/24 08:29:52;;;;;;;;;;;18.70;28.80;;;;;;482666;247;1049;-76
2022/01/24 08:31:53;;;;;;;;;;;18.80;28.80;;;;;;482607;247;1352;-75
2022/01/24 08:33:55;;;;;;;;;;;18.80;28.70;;;;;;482668;246;2146;-76
2022/01/24 08:35:57;;;;;;;;;;;18.90;28.70;;;;;;482451;247;1047;-76
2022/01/24 08:37:57;;;;;;;;;;;18.90;28.80;;;;;;482725;246;1871;-76
2022/01/24 08:39:59;;;;;;;;;;;18.90;28.80;;;;;;482829;246;1064;-76
2022/01/24 08:42:10;;;;;;;;;;;18.90;28.80;;;;;;482813;246;1191;-75
2022/01/24 08:44:17;;;;;;;;;;;18.80;28.90;;;;;;482036;246;1335;-76
2022/01/24 08:46:04;;;;;;;;;;;18.80;28.90;;;;;;481649;246;1331;-75
2022/01/24 08:48:05;;;;;;;;;;;18.80;29.00;;;;;;482766;247;1147;-76
2022/01/24 08:50:07;;;;;;;;;;;18.80;29.00;;;;;;482902;246;1481;-76
2022/01/24 08:52:08;;;;;;;;;;;18.90;29.00;;;;;;482908;246;1075;-76
2022/01/24 08:54:09;;;;;;;;;;;18.80;29.00;;;;;;482893;246;2129;-76
2022/01/24 08:56:11;;;;;;;;;;;18.80;29.10;;;;;;482858;246;1215;-76
2022/01/24 08:58:13;;;;;;;;;;;18.70;29.20;;;;;;482841;246;1037;-76
2022/01/24 09:00:14;;;;;;;;;;;18.70;29.20;;;;;;482711;246;1132;-75
2022/01/24 09:02:16;;;;;;;;;;;18.60;29.30;;;;;;482810;246;1120;-76
2022/01/24 09:04:17;;;;;;;;;;;18.60;29.40;;;;;;482814;246;1098;-76
2022/01/24 09:06:20;;;;;;;;;;;18.70;29.40;;;;;;482767;246;1127;-76
2022/01/24 09:08:20;;;;;;;;;;;18.70;29.40;;;;;;482668;247;1349;-76
2022/01/24 09:10:24;;;;;;;;;;;18.80;29.40;;;;;;482846;247;977;-76
2022/01/24 09:12:23;;;;;;;;;;;18.80;29.30;;;;;;482854;246;1535;-76
2022/01/24 09:14:24;;;;;;;;;;;18.80;29.50;;;;;;482760;247;2200;-76
2022/01/24 09:16:26;;;;;;;;;;;18.70;29.50;;;;;;482835;246;1266;-76
2022/01/24 09:18:27;;;;;;;;;;;18.80;29.50;;;;;;482717;246;1206;-76
2022/01/24 09:20:28;;;;;;;;;;;18.80;29.50;;;;;;482793;247;1226;-76
2022/01/24 09:22:30;;;;;;;;;;;18.70;29.50;;;;;;482772;246;1148;-76
2022/01/24 09:24:31;;;;;;;;;;;18.70;29.60;;;;;;482604;247;1077;-75
2022/01/24 09:26:32;;;;;;;;;;;18.70;29.60;;;;;;482700;246;1530;-76
2022/01/24 09:28:33;;;;;;;;;;;18.70;29.60;;;;;;482800;247;995;-75
2022/01/24 09:30:35;;;;;;;;;;;18.70;29.70;;;;;;482737;247;1394;-75
2022/01/24 09:32:36;;;;;;;;;;;18.70;29.70;;;;;;482973;246;1094;-75
2022/01/24 09:34:37;;;;;;;;;;;18.70;29.70;;;;;;482908;246;2215;-75
2022/01/24 09:36:39;;;;;;;;;;;18.70;29.70;;;;;;482945;247;1229;-75
2022/01/24 09:38:40;;;;;;;;;;;18.70;29.80;;;;;;482859;246;971;-76
2022/01/24 09:40:41;;;;;;;;;;;18.70;29.80;;;;;;482869;246;1529;-76
2022/01/24 09:42:43;;;;;;;;;;;18.80;29.80;;;;;;482777;246;1083;-76
2022/01/24 09:44:44;;;;;;;;;;;18.80;29.90;;;;;;482955;246;1027;-76
2022/01/24 09:46:46;;;;;;;;;;;18.80;29.90;;;;;;482896;246;1110;-75
2022/01/24 09:48:47;;;;;;;;;;;18.80;29.80;;;;;;482882;246;1185;-76
2022/01/24 09:50:50;;;;;;;;;;;19.00;29.70;;;;;;482881;247;1355;-76
2022/01/24 09:52:51;;;;;;;;;;;19.00;29.70;;;;;;482764;246;1440;-75
2022/01/24 09:54:52;;;;;;;;;;;19.00;29.60;;;;;;482759;246;2184;-76
2022/01/24 09:56:53;;;;;;;;;;;19.10;29.60;;;;;;482685;247;1252;-76
2022/01/24 09:58:55;;;;;;;;;;;19.20;29.40;;;;;;482941;247;1099;-76
2022/01/24 10:00:56;;;;;;;;;;;19.30;29.40;;;;;;482795;246;1154;-76
2022/01/24 10:02:58;;;;;;;;;;;19.20;29.40;;;;;;482896;246;1027;-76
2022/01/24 10:04:59;;;;;;;;;;;19.40;29.40;;;;;;482803;247;1210;-76
2022/01/24 10:07:00;;;;;;;;;;;19.50;29.30;;;;;;482779;247;1285;-75
2022/01/24 10:09:01;;;;;;;;;;;19.50;29.20;;;;;;482899;246;1088;-76
2022/01/24 10:11:03;;;;;;;;;;;19.40;29.30;;;;;;482931;246;1190;-76
2022/01/24 10:17:42;;;;;;;;;;;19.50;29.30;;;;;;482867;246;1220;-76
2022/01/24 10:19:44;;;;;;;;;;;19.50;29.40;;;;;;482967;247;1187;-76
2022/01/24 10:21:45;;;;;;;;;;;19.50;29.40;;;;;;482953;247;1381;-76
2022/01/24 10:23:46;;;;;;;;;;;19.70;29.30;;;;;;482854;246;994;-76
2022/01/24 10:25:48;;;;;;;;;;;19.60;29.30;;;;;;482800;246;1416;-75
2022/01/24 10:27:49;;;;;;;;;;;19.60;29.30;;;;;;482727;247;1107;-75
2022/01/24 10:29:50;;;;;;;;;;;19.60;29.30;;;;;;482643;246;1076;-76
2022/01/24 10:31:52;;;;;;;;;;;19.80;29.30;;;;;;482595;247;1526;-74
2022/01/24 10:33:53;;;;;;;;;;;19.80;29.10;;;;;;482709;247;2196;-75
2022/01/24 10:35:55;;;;;;;;;;;19.70;29.40;;;;;;482736;247;1446;-76
2022/01/24 10:37:56;;;;;;;;;;;19.70;29.40;;;;;;482721;246;1107;-76
2022/01/24 10:40:05;;;;;;;;;;;19.70;29.40;;;;;;482727;246;1230;-76
2022/01/24 10:41:59;;;;;;;;;;;19.70;29.50;;;;;;482167;246;1423;-75
2022/01/24 10:44:00;;;;;;;;;;;19.70;29.30;;;;;;482927;246;1333;-76
2022/01/24 10:46:01;;;;;;;;;;;19.80;29.40;;;;;;482913;247;1528;-76
2022/01/24 10:48:02;;;;;;;;;;;19.90;29.30;;;;;;483079;246;1066;-76
2022/01/24 10:50:04;;;;;;;;;;;20.00;29.20;;;;;;482979;246;1123;-75
2022/01/24 10:52:05;;;;;;;;;;;19.90;29.30;;;;;;482935;247;1033;-75
2022/01/24 10:54:06;;;;;;;;;;;19.90;29.30;;;;;;482765;246;2137;-76
2022/01/24 10:56:08;;;;;;;;;;;19.90;29.40;;;;;;482626;247;1504;-76
2022/01/24 10:58:09;;;;;;;;;;;19.80;29.30;;;;;;482908;246;1124;-76
2022/01/24 11:00:11;;;;;;;;;;;19.80;29.40;;;;;;483000;246;983;-76
2022/01/24 11:02:12;;;;;;;;;;;19.80;29.40;;;;;;482877;247;1104;-76
2022/01/24 11:04:14;;;;;;;;;;;19.90;29.30;;;;;;482881;246;1304;-76
2022/01/24 11:06:15;;;;;;;;;;;20.00;29.30;;;;;;482878;247;1419;-76
2022/01/24 11:08:16;;;;;;;;;;;19.90;29.30;;;;;;482803;247;1102;-76
2022/01/24 11:10:18;;;;;;;;;;;19.90;29.50;;;;;;482630;246;1058;-76
2022/01/24 11:12:23;;;;;;;;;;;20.00;29.30;;;;;;482643;246;1106;-76
2022/01/24 11:14:21;;;;;;;;;;;20.20;29.20;;;;;;482450;246;2188;-76
2022/01/24 11:16:22;;;;;;;;;;;20.20;29.20;;;;;;482735;247;1335;-76
2022/01/24 11:18:23;;;;;;;;;;;19.90;29.40;;;;;;482840;247;1083;-76
2022/01/24 11:20:29;;;;;;;;;;;19.90;29.60;;;;;;482916;246;1197;-76
2022/01/24 11:22:28;;;;;;;;;;;19.80;29.50;;;;;;482540;246;1423;-75
2022/01/24 11:24:36;;;;;;;;;;;19.90;29.50;;;;;;482783;247;1393;-76
2022/01/24 11:26:30;;;;;;;;;;;19.70;29.60;;;;;;482428;246;1460;-76
2022/01/24 11:28:32;;;;;;;;;;;19.80;29.70;;;;;;482972;246;1088;-76
2022/01/24 11:30:32;;;;;;;;;;;19.90;29.50;;;;;;482809;246;1394;-76
2022/01/24 11:32:34;;;;;;;;;;;19.90;29.60;;;;;;482983;246;1063;-76
2022/01/24 11:34:35;;;;;;;;;;;19.90;29.60;;;;;;482805;247;2207;-76
2022/01/24 11:36:36;;;;;;;;;;;19.70;29.70;;;;;;482827;246;1231;-76
2022/01/24 11:38:38;;;;;;;;;;;19.70;29.80;;;;;;483595;246;809;-76
2022/01/24 11:40:39;;;;;;;;;;;19.80;29.70;;;;;;482893;247;1002;-76
2022/01/24 11:42:41;;;;;;;;;;;19.70;29.70;;;;;;482926;247;1173;-76
2022/01/24 11:44:42;;;;;;;;;;;19.60;29.80;;;;;;482929;246;1342;-75
2022/01/24 11:46:45;;;;;;;;;;;19.60;29.90;;;;;;482916;246;1123;-76
2022/01/24 11:48:44;;;;;;;;;;;19.70;29.80;;;;;;482880;246;1250;-76
2022/01/24 11:50:46;;;;;;;;;;;19.60;29.90;;;;;;482899;246;1158;-76
2022/01/24 11:52:47;;;;;;;;;;;19.60;29.90;;;;;;482962;246;1240;-76
2022/01/24 11:54:53;;;;;;;;;;;19.70;29.80;;;;;;483046;247;2188;-76
2022/01/24 11:56:51;;;;;;;;;;;19.70;29.80;;;;;;482772;246;1603;-76
2022/01/24 11:58:51;;;;;;;;;;;19.60;29.90;;;;;;483123;247;1218;-75
2022/01/24 12:00:55;;;;;;;;;;;19.70;29.90;;;;;;482825;247;1210;-76
2022/01/24 12:02:54;;;;;;;;;;;19.70;29.90;;;;;;482798;246;1405;-76
2022/01/24 12:04:55;;;;;;;;;;;19.70;29.90;;;;;;482908;246;1158;-76
2022/01/24 12:06:56;;;;;;;;;;;19.70;29.80;;;;;;482797;246;1473;-75
2022/01/24 12:08:58;;;;;;;;;;;19.60;30.00;;;;;;482851;247;1141;-76
2022/01/24 12:10:59;;;;;;;;;;;19.50;30.00;;;;;;482981;246;1410;-76
2022/01/24 12:13:02;;;;;;;;;;;19.60;30.00;;;;;;482948;247;1183;-76
2022/01/24 12:15:02;;;;;;;;;;;19.50;30.00;;;;;;482576;246;2196;-76
2022/01/24 12:17:04;;;;;;;;;;;19.60;30.00;;;;;;482822;247;1084;-76
2022/01/24 12:19:05;;;;;;;;;;;19.50;30.00;;;;;;482624;246;1406;-76
2022/01/24 12:21:06;;;;;;;;;;;19.60;30.00;;;;;;482566;247;1225;-76
2022/01/24 12:23:07;;;;;;;;;;;19.60;30.00;;;;;;482633;246;1049;-76
2022/01/24 12:25:09;;;;;;;;;;;19.50;30.00;;;;;;483021;246;1015;-76
2022/01/24 12:27:12;;;;;;;;;;;19.40;30.10;;;;;;482895;247;1034;-76
2022/01/24 12:29:11;;;;;;;;;;;19.60;30.00;;;;;;482771;246;1305;-75
2022/01/24 12:31:13;;;;;;;;;;;19.70;29.90;;;;;;482763;246;1482;-76
2022/01/24 12:33:14;;;;;;;;;;;19.60;30.00;;;;;;482810;247;1159;-76
2022/01/24 12:35:15;;;;;;;;;;;19.60;30.00;;;;;;482774;247;2144;-75
2022/01/24 12:37:16;;;;;;;;;;;19.60;30.00;;;;;;483000;246;1219;-76
2022/01/24 12:39:18;;;;;;;;;;;19.50;30.00;;;;;;482847;246;1063;-76
2022/01/24 12:41:20;;;;;;;;;;;19.60;30.00;;;;;;482915;247;1303;-75
2022/01/24 12:43:30;;;;;;;;;;;19.50;30.10;;;;;;483102;246;1249;-76
2022/01/24 12:47:41;;;;;;;;;;;19.40;30.20;;;;;;482914;246;1240;-76
2022/01/24 12:49:42;;;;;;;;;;;19.40;30.30;;;;;;482821;246;1058;-76
2022/01/24 12:51:45;;;;;;;;;;;19.40;30.20;;;;;;482823;247;1289;-76
2022/01/24 12:53:45;;;;;;;;;;;19.50;30.30;;;;;;482832;246;1722;-76
2022/01/24 12:55:47;;;;;;;;;;;19.50;30.30;;;;;;482863;246;2204;-75
2022/01/24 12:57:48;;;;;;;;;;;19.40;30.30;;;;;;482866;246;1109;-76
2022/01/24 12:59:49;;;;;;;;;;;19.50;30.30;;;;;;482668;247;1054;-76
2022/01/24 13:01:54;;;;;;;;;;;19.50;30.20;;;;;;482524;247;1223;-76
2022/01/24 13:03:53;;;;;;;;;;;19.50;30.30;;;;;;482612;246;1552;-76
2022/01/24 13:05:54;;;;;;;;;;;19.50;30.30;;;;;;482587;246;1223;-76